Time;durP1;ratioP1;P1;durP2;ratioP2;P2;SDS_P1;SDS_P2;PMS_P1;PMS_P2;Temp;Humidity;BMP_temperature;BMP_pressure;BME280_temperature;BME280_humidity;BME280_pressure;Samples;Min_cycle;Max_cycle;Signal;HPM_P1;HPM_P2
2022/11/12 00:00:37;;;;;;;8.05;5.53;;;;;;;10.48;99.12;101512.41;5048741;28;20044;-30
2022/11/12 00:03:03;;;;;;;9.43;5.22;;;;;;;10.34;99.50;101488.22;5066665;28;20082;-28
2022/11/12 00:05:29;;;;;;;8.07;5.10;;;;;;;10.57;99.40;101505.97;5048842;28;20765;-30
2022/11/12 00:07:54;;;;;;;8.98;5.40;;;;;;;10.71;98.84;101499.00;5048661;28;20063;-27
2022/11/12 00:10:20;;;;;;;8.65;5.43;;;;;;;10.49;99.17;101487.41;5065471;28;20486;-28
2022/11/12 00:12:46;;;;;;;8.57;5.38;;;;;;;10.39;99.86;101480.47;5066693;28;20251;-29
2022/11/12 00:15:11;;;;;;;8.25;5.90;;;;;;;10.47;100.00;101500.91;5066659;28;20025;-30
2022/11/12 00:17:37;;;;;;;12.07;6.63;;;;;;;10.56;99.27;101506.97;5066782;28;20035;-27
2022/11/12 00:20:03;;;;;;;15.25;7.72;;;;;;;10.73;97.41;101495.13;5048533;28;20416;-31
2022/11/12 00:22:28;;;;;;;12.13;6.70;;;;;;;10.63;96.44;101490.06;5066516;28;20493;-27
2022/11/12 00:24:54;;;;;;;8.95;5.68;;;;;;;10.39;97.89;101485.81;5066701;28;20033;-31
2022/11/12 00:27:19;;;;;;;8.55;5.35;;;;;;;10.36;98.87;101488.88;5066805;28;20044;-28
2022/11/12 00:29:44;;;;;;;8.93;5.95;;;;;;;10.41;98.69;101486.47;5067590;28;20499;-29
2022/11/12 00:32:11;;;;;;;7.35;4.72;;;;;;;10.36;98.45;101472.00;5052511;28;20416;-28
2022/11/12 00:34:36;;;;;;;7.65;5.07;;;;;;;10.47;99.34;101489.41;5052485;28;20028;-28
2022/11/12 00:37:02;;;;;;;9.75;5.30;;;;;;;10.24;100.00;101477.78;5051679;28;20028;-30
2022/11/12 00:39:28;;;;;;;11.93;5.20;;;;;;;10.28;100.00;101480.91;5070599;28;20027;-28
2022/11/12 00:41:54;;;;;;;7.65;4.60;;;;;;;10.16;100.00;101488.53;5052175;28;20733;-27
2022/11/12 00:44:21;;;;;;;7.75;4.68;;;;;;;10.10;100.00;101465.25;5070383;28;20036;-27
2022/11/12 00:46:46;;;;;;;8.05;5.00;;;;;;;10.24;100.00;101479.63;5070036;28;20056;-28
2022/11/12 00:49:11;;;;;;;7.53;4.65;;;;;;;10.32;100.00;101468.06;5070241;28;20415;-28
2022/11/12 00:51:37;;;;;;;8.98;4.72;;;;;;;10.45;98.71;101481.59;5051733;28;20440;-29
2022/11/12 00:54:03;;;;;;;8.23;4.60;;;;;;;10.33;98.73;101462.53;5070330;28;20028;-28
2022/11/12 00:56:29;;;;;;;8.93;4.80;;;;;;;10.28;97.98;101459.59;5070206;28;20486;-29
2022/11/12 00:58:54;;;;;;;8.00;4.65;;;;;;;10.38;96.90;101478.00;5069759;28;20060;-28
2022/11/12 01:01:20;;;;;;;8.88;4.55;;;;;;;10.32;98.34;101492.06;5069931;28;20032;-30
2022/11/12 01:03:46;;;;;;;12.23;5.80;;;;;;;10.28;98.47;101486.25;5051764;28;20024;-27
2022/11/12 01:06:13;;;;;;;18.77;5.18;;;;;;;10.21;99.03;101479.97;5051211;28;20423;-30
2022/11/12 01:08:40;;;;;;;8.15;4.07;;;;;;;10.18;99.63;101486.50;5070136;28;20036;-28
2022/11/12 01:11:08;;;;;;;6.68;3.60;;;;;;;10.23;99.24;101483.28;5069607;28;20119;-32
2022/11/12 01:13:34;;;;;;;;;;;;;;;10.05;99.14;101470.28;5070509;28;20028;-29
2022/11/12 01:16:04;;;;;;;8.40;4.00;;;;;;;10.18;99.66;101470.50;5069786;28;19919;-28
2022/11/12 01:18:30;;;;;;;7.53;3.72;;;;;;;10.22;99.25;101473.66;5069702;28;20042;-30
2022/11/12 01:20:59;;;;;;;7.22;3.92;;;;;;;10.18;98.13;101473.16;5069458;28;20028;-31
2022/11/12 01:23:24;;;;;;;6.93;3.80;;;;;;;9.99;99.66;101461.19;5070083;28;20108;-28
2022/11/12 01:25:50;;;;;;;7.30;3.45;;;;;;;9.94;99.97;101458.22;5069495;28;20093;-27
2022/11/12 01:28:15;;;;;;;8.57;3.72;;;;;;;10.06;100.00;101477.28;5069559;28;20035;-32
2022/11/12 01:30:41;;;;;;;6.70;3.92;;;;;;;10.03;98.89;101446.50;5069438;28;20029;-29
2022/11/12 01:33:06;;;;;;;8.20;3.83;;;;;;;10.00;99.27;101448.69;5069116;28;20032;-29
2022/11/12 01:35:31;;;;;;;7.80;3.92;;;;;;;10.01;100.00;101469.00;5069156;28;20404;-28
2022/11/12 01:37:57;;;;;;;7.43;3.90;;;;;;;10.12;99.62;101465.09;5069159;28;20028;-28
2022/11/12 01:40:22;;;;;;;6.65;3.90;;;;;;;9.97;100.00;101463.22;5068759;28;20123;-28
2022/11/12 01:42:52;;;;;;;8.10;4.30;;;;;;;10.09;100.00;101462.75;5069259;28;20082;-28
2022/11/12 01:45:18;;;;;;;9.75;4.35;;;;;;;10.10;100.00;101453.78;5051339;28;20579;-31
2022/11/12 01:47:47;;;;;;;9.77;3.95;;;;;;;10.21;99.57;101459.47;5069059;28;20116;-32
2022/11/12 01:50:21;;;;;;;7.68;4.28;;;;;;;10.03;99.53;101457.16;5069809;28;20075;-29
2022/11/12 01:53:05;;;;;;;8.75;4.18;;;;;;;9.85;99.35;101452.16;5050834;28;20040;-30
2022/11/12 01:55:35;;;;;;;8.93;4.93;;;;;;;9.94;100.00;101447.56;5069124;28;20028;-30
2022/11/12 01:58:06;;;;;;;9.02;4.78;;;;;;;9.99;100.00;101453.19;5069044;28;20064;-29
2022/11/12 02:00:31;;;;;;;7.60;4.28;;;;;;;10.05;100.00;101455.16;5051035;28;20597;-29
2022/11/12 02:03:00;;;;;;;9.45;4.53;;;;;;;10.08;99.89;101437.94;5068758;28;20039;-28
2022/11/12 02:05:28;;;;;;;9.27;4.75;;;;;;;10.18;99.00;101449.19;5069048;28;20032;-29
2022/11/12 02:07:56;;;;;;;8.05;4.50;;;;;;;10.12;99.69;101459.75;5050552;28;20795;-30
2022/11/12 02:10:22;;;;;;;8.23;4.85;;;;;;;10.28;99.27;101464.91;5068751;28;20032;-34
2022/11/12 02:15:36;;;;;;;9.73;5.18;;;;;;;10.12;98.58;101441.09;5068655;28;20412;-32
2022/11/12 02:18:02;;;;;;;9.05;5.13;;;;;;;10.17;99.22;101455.50;5050558;28;20032;-29
2022/11/12 02:20:32;;;;;;;8.60;5.35;;;;;;;10.05;99.04;101449.81;5068542;28;20698;-28
2022/11/12 02:22:58;;;;;;;9.40;5.03;;;;;;;10.00;99.91;101441.50;5050043;28;20074;-29
2022/11/12 02:25:23;;;;;;;8.48;4.95;;;;;;;10.20;98.41;101462.34;5050121;28;20106;-29
2022/11/12 02:27:54;;;;;;;8.80;4.93;;;;;;;9.85;98.49;101435.34;5050369;28;20036;-27
2022/11/12 02:30:31;;;;;;;10.90;5.90;;;;;;;9.87;99.63;101436.00;5068936;28;20492;-30
2022/11/12 02:32:56;;;;;;;10.57;6.43;;;;;;;9.89;100.00;101455.28;5068526;28;20028;-29
2022/11/12 02:35:22;;;;;;;11.60;6.00;;;;;;;9.66;100.00;101465.94;5068241;28;20031;-31
2022/11/12 02:37:47;;;;;;;10.52;6.05;;;;;;;9.38;100.00;101463.00;5068083;28;20766;-32
2022/11/12 02:40:13;;;;;;;16.77;9.05;;;;;;;9.54;100.00;101472.69;5050249;28;20507;-29
2022/11/12 02:42:38;;;;;;;14.73;8.68;;;;;;;9.67;100.00;101472.13;5068339;28;20420;-29
2022/11/12 02:45:04;;;;;;;16.00;8.60;;;;;;;9.83;100.00;101466.69;5050097;28;20449;-29
2022/11/12 02:47:29;;;;;;;11.98;6.50;;;;;;;9.83;100.00;101470.16;5050028;28;20059;-29
2022/11/12 02:49:55;;;;;;;12.10;6.53;;;;;;;9.89;100.00;101468.63;5067869;28;20029;-29
2022/11/12 02:52:20;;;;;;;14.65;7.90;;;;;;;9.95;100.00;101467.03;5066932;28;20032;-30
2022/11/12 02:54:46;;;;;;;14.93;7.28;;;;;;;9.75;100.00;101450.75;5067635;28;20039;-29
2022/11/12 02:57:11;;;;;;;13.35;7.15;;;;;;;9.79;100.00;101479.50;5049762;28;20028;-28
2022/11/12 02:59:36;;;;;;;11.98;6.63;;;;;;;9.48;100.00;101452.97;5049801;28;20036;-28
2022/11/12 03:02:02;;;;;;;12.25;7.32;;;;;;;9.65;100.00;101454.47;5067876;28;20592;-27
2022/11/12 03:04:27;;;;;;;13.23;7.00;;;;;;;9.63;100.00;101472.47;5067821;28;20040;-28
2022/11/12 03:06:53;;;;;;;12.00;6.82;;;;;;;9.56;100.00;101468.03;5067077;28;20109;-28
2022/11/12 03:09:18;;;;;;;11.55;6.65;;;;;;;9.76;100.00;101468.38;5049509;28;20050;-28
2022/11/12 03:11:43;;;;;;;11.57;6.55;;;;;;;9.79;100.00;101478.69;5067464;28;20615;-29
2022/11/12 03:14:09;;;;;;;10.20;6.28;;;;;;;9.45;100.00;101462.09;5049451;28;20033;-28
2022/11/12 03:16:34;;;;;;;13.35;7.35;;;;;;;9.65;100.00;101454.47;5067461;28;20480;-31
2022/11/12 03:19:00;;;;;;;11.65;6.60;;;;;;;9.92;100.00;101486.91;5049086;28;20028;-28
2022/11/12 03:21:25;;;;;;;13.00;7.32;;;;;;;9.91;100.00;101485.25;5049383;28;20039;-30
2022/11/12 03:23:52;;;;;;;12.25;6.50;;;;;;;9.90;100.00;101486.25;5067451;28;20032;-28
2022/11/12 03:26:17;;;;;;;12.38;6.32;;;;;;;9.98;100.00;101470.19;5049441;28;20534;-31
2022/11/12 03:28:43;;;;;;;11.02;6.20;;;;;;;9.99;100.00;101466.53;5049179;28;20020;-30
2022/11/12 03:31:10;;;;;;;9.70;6.00;;;;;;;9.80;100.00;101472.34;5067371;28;20033;-29
2022/11/12 03:33:36;;;;;;;11.48;6.50;;;;;;;9.90;100.00;101494.25;5049195;28;20062;-29
2022/11/12 03:36:03;;;;;;;12.77;6.60;;;;;;;9.86;100.00;101492.94;5049258;28;20129;-28
2022/11/12 03:38:28;;;;;;;12.93;6.20;;;;;;;9.65;100.00;101470.47;5067503;28;20024;-31
2022/11/12 03:40:54;;;;;;;11.82;6.80;;;;;;;9.79;100.00;101497.34;5067094;28;20036;-29
2022/11/12 03:43:19;;;;;;;10.27;6.47;;;;;;;9.79;100.00;101476.03;5067388;28;20028;-28
2022/11/12 03:45:45;;;;;;;14.15;7.65;;;;;;;9.84;100.00;101489.63;5067200;28;20036;-31
2022/11/12 03:48:10;;;;;;;14.10;7.78;;;;;;;9.99;100.00;101495.84;5067206;28;20024;-29
2022/11/12 03:50:36;;;;;;;16.35;8.60;;;;;;;9.77;100.00;101483.38;5067138;28;20040;-31
2022/11/12 03:53:02;;;;;;;16.92;8.45;;;;;;;9.77;100.00;101488.69;5048830;28;20036;-30
2022/11/12 03:55:29;;;;;;;13.95;7.07;;;;;;;9.88;100.00;101496.25;5066850;28;20067;-28
2022/11/12 03:57:55;;;;;;;10.38;6.97;;;;;;;9.99;100.00;101481.66;5067223;28;20043;-28
2022/11/12 04:00:23;;;;;;;14.65;7.78;;;;;;;9.92;100.00;101491.41;5066995;28;20036;-28
2022/11/12 04:02:49;;;;;;;11.70;7.32;;;;;;;9.99;100.00;101509.16;5048507;28;20059;-31
2022/11/12 04:11:00;;;;;;;14.05;7.22;;;;;;;10.21;100.00;101511.97;5066661;28;20036;-29
2022/11/12 04:13:28;;;;;;;13.68;6.88;;;;;;;10.11;100.00;101512.22;5066754;28;20040;-28
2022/11/12 04:26:21;;;;;;;11.88;6.78;;;;;;;9.88;100.00;101522.91;5066525;28;20040;-28
2022/11/12 04:26:56;;;;;;;12.98;7.63;;;;;;;9.68;100.00;101500.41;5066411;28;20968;-29
2022/11/12 04:32:06;;;;;;;15.43;8.35;;;;;;;10.09;100.00;101518.75;5067012;28;20046;-29
2022/11/12 04:34:33;;;;;;;11.88;7.88;;;;;;;9.75;100.00;101517.34;5065752;28;20029;-28
2022/11/12 04:36:59;;;;;;;13.07;7.78;;;;;;;9.76;100.00;101511.00;5066310;28;20024;-28
2022/11/12 04:39:25;;;;;;;13.13;8.02;;;;;;;9.74;100.00;101515.69;5066656;28;20520;-28
2022/11/12 04:47:18;;;;;;;16.67;9.73;;;;;;;9.92;100.00;101518.88;5066692;28;20087;-27
2022/11/12 04:49:43;;;;;;;19.38;10.13;;;;;;;9.83;100.00;101514.63;5048441;28;20748;-32
2022/11/12 04:52:09;;;;;;;17.02;10.02;;;;;;;9.93;100.00;101523.22;5066591;28;20032;-30
2022/11/12 04:54:35;;;;;;;20.27;11.48;;;;;;;10.01;100.00;101501.81;5066839;28;20487;-29
2022/11/12 04:57:00;;;;;;;20.80;13.38;;;;;;;10.02;100.00;101514.13;5066310;28;20040;-32
2022/11/12 04:59:25;;;;;;;23.10;11.93;;;;;;;9.95;100.00;101507.88;5066142;28;20032;-29
2022/11/12 05:01:51;;;;;;;18.55;10.98;;;;;;;10.02;100.00;101499.97;5066631;28;20037;-29
2022/11/12 05:04:17;;;;;;;19.60;10.50;;;;;;;10.28;100.00;101523.56;5048577;28;20048;-31
2022/11/12 05:06:51;;;;;;;19.30;11.77;;;;;;;10.01;100.00;101506.31;5066265;28;20052;-31
2022/11/12 05:09:26;;;;;;;18.25;11.07;;;;;;;9.99;100.00;101525.16;5066577;28;20033;-30
2022/11/12 05:11:54;;;;;;;21.80;11.93;;;;;;;9.92;100.00;101540.19;5066149;28;20037;-30
2022/11/12 05:14:20;;;;;;;18.55;11.88;;;;;;;9.89;100.00;101535.22;5066501;28;20024;-30
2022/11/12 05:16:45;;;;;;;20.25;12.98;;;;;;;9.91;100.00;101532.38;5068412;28;20040;-33
2022/11/12 05:19:11;;;;;;;20.73;13.15;;;;;;;9.72;100.00;101539.81;5070022;28;20025;-30
2022/11/12 05:24:20;;;;;;;18.85;12.23;;;;;;;9.50;100.00;101525.50;5069907;28;20093;-29
2022/11/12 05:26:46;;;;;;;15.43;9.77;;;;;;;9.53;100.00;101546.44;5069292;28;20033;-31
2022/11/12 05:29:11;;;;;;;15.65;9.02;;;;;;;9.51;100.00;101551.13;5051623;28;20025;-28
2022/11/12 05:31:37;;;;;;;13.02;8.30;;;;;;;9.42;100.00;101541.53;5069658;28;20517;-29
2022/11/12 05:34:02;;;;;;;15.90;9.18;;;;;;;9.57;100.00;101546.94;5069834;28;20511;-28
2022/11/12 05:36:27;;;;;;;14.20;8.15;;;;;;;9.76;100.00;101551.78;5069426;28;20032;-30
2022/11/12 05:38:53;;;;;;;14.05;7.63;;;;;;;9.90;100.00;101557.38;5069355;28;20103;-31
2022/11/12 05:41:18;;;;;;;13.75;8.23;;;;;;;9.44;100.00;101551.00;5069298;28;20039;-28
2022/11/12 05:43:44;;;;;;;14.40;8.70;;;;;;;9.61;100.00;101567.72;5069654;28;20032;-30
2022/11/12 05:46:10;;;;;;;13.63;7.85;;;;;;;9.58;100.00;101573.41;5069415;28;20447;-29
2022/11/12 05:48:35;;;;;;;14.10;8.32;;;;;;;9.70;100.00;101573.00;5069135;28;20552;-30
2022/11/12 05:51:01;;;;;;;15.25;8.50;;;;;;;9.65;100.00;101561.03;5068877;28;20025;-29
2022/11/12 05:53:26;;;;;;;13.95;7.65;;;;;;;9.64;100.00;101587.81;5068956;28;20028;-28
2022/11/12 05:55:51;;;;;;;15.10;7.30;;;;;;;9.41;100.00;101582.47;5068966;28;20067;-29
2022/11/12 05:58:17;;;;;;;15.07;8.80;;;;;;;9.54;100.00;101572.09;5069596;28;20028;-28
2022/11/12 06:00:43;;;;;;;25.77;14.50;;;;;;;9.74;100.00;101595.59;5050674;28;20033;-30
2022/11/12 06:03:09;;;;;;;18.08;10.63;;;;;;;9.71;100.00;101582.66;5068950;28;20139;-31
2022/11/12 06:05:35;;;;;;;23.85;13.15;;;;;;;10.06;100.00;101600.72;5050768;28;20040;-33
2022/11/12 06:08:01;;;;;;;15.90;9.45;;;;;;;9.83;100.00;101599.91;5068543;28;20059;-27
2022/11/12 06:10:26;;;;;;;15.63;8.65;;;;;;;9.88;100.00;101610.00;5068496;28;20032;-29
2022/11/12 06:12:53;;;;;;;12.88;8.18;;;;;;;9.96;100.00;101605.44;5068565;28;20028;-29
2022/11/12 06:15:18;;;;;;;15.20;7.60;;;;;;;9.74;100.00;101590.28;5068603;28;20607;-31
2022/11/12 06:17:44;;;;;;;13.30;7.97;;;;;;;9.80;100.00;101589.56;5050820;28;20036;-28
2022/11/12 06:20:10;;;;;;;13.63;7.45;;;;;;;9.90;100.00;101603.50;5068694;28;20415;-31
2022/11/12 06:22:36;;;;;;;29.10;17.67;;;;;;;9.76;100.00;101588.28;5068641;28;20037;-27
2022/11/12 06:25:02;;;;;;;21.92;11.38;;;;;;;9.89;100.00;101603.66;5068182;28;20033;-30
2022/11/12 06:27:27;;;;;;;18.75;11.43;;;;;;;9.80;100.00;101601.06;5067296;28;20047;-28
2022/11/12 06:29:53;;;;;;;17.50;11.00;;;;;;;9.71;100.00;101590.66;5088798;28;20028;-28
2022/11/12 06:32:18;;;;;;;17.23;9.18;;;;;;;9.70;100.00;101610.28;5070348;28;20031;-28
2022/11/12 06:34:44;;;;;;;17.42;9.32;;;;;;;9.71;100.00;101611.97;5088625;28;20054;-31
2022/11/12 06:37:09;;;;;;;18.10;9.02;;;;;;;9.65;100.00;101602.81;5070149;28;20028;-28
2022/11/12 06:39:34;;;;;;;17.17;9.32;;;;;;;9.80;100.00;101610.88;5088799;28;20024;-28
2022/11/12 06:42:00;;;;;;;20.75;10.70;;;;;;;9.73;100.00;101593.97;5070371;28;20115;-30
2022/11/12 06:44:26;;;;;;;17.88;9.35;;;;;;;9.88;100.00;101610.84;5088611;28;20506;-28
2022/11/12 06:46:52;;;;;;;14.02;8.38;;;;;;;9.71;100.00;101590.66;5088216;28;20032;-28
2022/11/12 06:49:17;;;;;;;16.38;9.35;;;;;;;9.74;100.00;101595.59;5088383;28;20032;-28
2022/11/12 06:51:43;;;;;;;20.35;9.38;;;;;;;9.89;100.00;101601.84;5088325;28;20679;-29
2022/11/12 06:54:08;;;;;;;16.20;9.02;;;;;;;9.97;100.00;101612.47;5087934;28;20024;-28
2022/11/12 06:56:33;;;;;;;15.68;8.27;;;;;;;9.85;100.00;101595.22;5088282;28;20677;-30
2022/11/12 06:58:59;;;;;;;16.00;8.15;;;;;;;9.95;100.00;101614.47;5069547;28;20035;-28
2022/11/12 07:01:24;;;;;;;15.75;9.43;;;;;;;9.98;100.00;101603.44;5088307;28;20028;-28
2022/11/12 07:03:51;;;;;;;15.40;8.80;;;;;;;9.84;100.00;101605.03;5088135;28;20055;-30
2022/11/12 07:06:19;;;;;;;14.43;8.68;;;;;;;9.70;100.00;101594.31;5087807;28;20484;-28
2022/11/12 07:08:45;;;;;;;15.60;9.17;;;;;;;9.49;100.00;101590.41;5087784;28;20024;-28
2022/11/12 07:11:11;;;;;;;15.02;8.95;;;;;;;9.52;100.00;101608.72;5087899;28;20031;-31
2022/11/12 07:13:37;;;;;;;15.93;8.38;;;;;;;9.56;100.00;101604.72;5088004;28;20059;-27
2022/11/12 07:16:05;;;;;;;15.48;8.77;;;;;;;9.42;100.00;101605.44;5087666;28;20103;-28
2022/11/12 07:18:32;;;;;;;16.92;9.32;;;;;;;9.40;100.00;101594.97;5069583;28;20039;-28
2022/11/12 07:20:59;;;;;;;14.65;8.35;;;;;;;9.57;100.00;101590.38;5069101;28;20077;-28
2022/11/12 07:23:25;;;;;;;15.70;8.88;;;;;;;9.74;100.00;101595.59;5069515;28;20488;-32
2022/11/12 07:25:55;;;;;;;15.05;7.82;;;;;;;9.52;100.00;101598.06;5087977;28;20032;-28
2022/11/12 07:28:21;;;;;;;13.38;7.63;;;;;;;9.47;100.00;101596.94;5069582;28;20024;-28
2022/11/12 07:30:46;;;;;;;15.38;8.10;;;;;;;9.37;100.00;101594.47;5087451;28;20034;-29
2022/11/12 07:33:11;;;;;;;16.75;8.90;;;;;;;9.42;100.00;101597.47;5068976;28;20424;-28
2022/11/12 07:35:37;;;;;;;15.68;8.25;;;;;;;9.63;100.00;101596.84;5068732;28;20036;-28
2022/11/12 07:38:02;;;;;;;13.93;8.38;;;;;;;9.56;100.00;101604.72;5068766;28;20089;-33
2022/11/12 07:40:28;;;;;;;13.65;7.63;;;;;;;9.67;100.00;101610.66;5069082;28;20412;-28
2022/11/12 07:42:53;;;;;;;11.68;6.82;;;;;;;9.48;100.00;101596.75;5068800;28;20030;-28
2022/11/12 07:45:18;;;;;;;13.30;6.90;;;;;;;9.63;100.00;101602.16;5087371;28;20076;-30
2022/11/12 07:47:44;;;;;;;12.48;6.65;;;;;;;9.62;100.00;101614.66;5087408;28;20055;-28
2022/11/12 07:50:09;;;;;;;12.02;7.20;;;;;;;9.63;100.00;101594.19;5087307;28;20498;-29
2022/11/12 07:52:35;;;;;;;10.85;6.10;;;;;;;9.61;100.00;101590.84;5086966;28;20118;-29
2022/11/12 07:55:00;;;;;;;12.18;6.60;;;;;;;9.84;100.00;101613.03;5087177;28;20030;-28
2022/11/12 07:57:25;;;;;;;12.15;7.00;;;;;;;9.67;100.00;101610.66;5068888;28;20028;-33
2022/11/12 07:59:51;;;;;;;12.15;7.13;;;;;;;9.78;100.00;101613.72;5087333;28;20032;-29
2022/11/12 08:02:16;;;;;;;14.32;8.88;;;;;;;9.59;100.00;101598.19;5087366;28;20101;-28
2022/11/12 08:04:42;;;;;;;11.45;6.95;;;;;;;9.83;100.00;101615.88;5087172;28;20063;-32
2022/11/12 08:07:07;;;;;;;11.93;7.88;;;;;;;9.43;100.00;101607.91;5087090;28;20071;-30
2022/11/12 08:09:32;;;;;;;13.00;7.22;;;;;;;9.42;100.00;101613.44;5087396;28;20086;-30
2022/11/12 08:11:58;;;;;;;13.55;7.50;;;;;;;9.63;100.00;101642.94;5068887;28;20500;-28
2022/11/12 08:14:23;;;;;;;11.88;6.88;;;;;;;9.83;100.00;101647.84;5068953;28;20104;-28
2022/11/12 08:16:49;;;;;;;11.20;6.00;;;;;;;9.93;100.00;101642.28;5086672;28;20030;-28
2022/11/12 08:19:14;;;;;;;9.55;5.88;;;;;;;9.88;100.00;101645.47;5087071;28;20102;-26
2022/11/12 08:21:39;;;;;;;9.93;6.18;;;;;;;10.02;100.00;101639.41;5068223;28;20020;-27
2022/11/12 08:24:05;;;;;;;8.70;4.70;;;;;;;10.18;100.00;101633.13;5087492;28;20043;-28
2022/11/12 08:26:31;;;;;;;7.70;4.38;;;;;;;10.10;100.00;101648.34;5086992;28;20036;-30
2022/11/12 08:28:56;;;;;;;7.85;4.85;;;;;;;9.72;100.00;101618.94;5068677;28;20034;-33
2022/11/12 08:31:22;;;;;;;7.68;4.35;;;;;;;10.18;100.00;101643.78;5086989;28;20028;-29
2022/11/12 08:33:48;;;;;;;7.50;4.10;;;;;;;9.85;100.00;101649.34;5086902;28;20499;-31
2022/11/12 08:36:15;;;;;;;7.03;3.78;;;;;;;9.87;100.00;101643.84;5086695;28;20129;-27
2022/11/12 08:38:41;;;;;;;7.20;4.00;;;;;;;9.80;100.00;101632.19;5086961;28;20024;-30
2022/11/12 08:41:10;;;;;;;8.05;4.50;;;;;;;9.85;100.00;101646.66;5086715;28;20055;-28
2022/11/12 08:43:36;;;;;;;8.57;4.35;;;;;;;9.87;100.00;101643.84;5068491;28;20024;-27
2022/11/12 08:46:03;;;;;;;8.13;4.25;;;;;;;9.94;100.00;101638.63;5086905;28;20028;-27
2022/11/12 08:48:30;;;;;;;11.00;5.88;;;;;;;9.74;100.00;101628.41;5086611;28;20102;-28
2022/11/12 08:50:56;;;;;;;11.57;5.63;;;;;;;9.88;100.00;101626.00;5069483;28;20063;-29
2022/11/12 08:53:23;;;;;;;8.88;4.28;;;;;;;9.92;100.00;101636.13;5072288;28;20039;-38
2022/11/12 08:55:53;;;;;;;7.40;3.88;;;;;;;9.69;100.00;101652.09;5072193;28;20047;-27
2022/11/12 08:58:18;;;;;;;8.85;5.00;;;;;;;9.63;100.00;101650.94;5090629;28;20043;-28
2022/11/12 09:00:45;;;;;;;8.00;4.70;;;;;;;9.62;100.00;101646.63;5071758;28;20634;-28
2022/11/12 09:03:15;;;;;;;9.00;5.28;;;;;;;9.60;100.00;101658.44;5090448;28;20028;-28
2022/11/12 09:05:42;;;;;;;6.60;3.55;;;;;;;9.75;100.00;101666.53;5072086;28;20430;-28
2022/11/12 09:08:10;;;;;;;6.90;3.50;;;;;;;9.85;100.00;101660.00;5071776;28;20519;-34
2022/11/12 09:10:36;;;;;;;6.70;3.30;;;;;;;10.05;100.00;101663.03;5090064;28;20020;-28
2022/11/12 09:13:02;;;;;;;7.40;3.97;;;;;;;9.95;100.00;101641.13;5090438;28;20359;-30
2022/11/12 09:15:28;;;;;;;6.28;3.60;;;;;;;10.14;100.00;101647.81;5071523;28;20028;-29
2022/11/12 09:17:55;;;;;;;5.70;3.35;;;;;;;10.22;100.00;101652.28;5071652;28;20063;-28
2022/11/12 09:20:21;;;;;;;6.88;3.50;;;;;;;10.25;100.00;101662.56;5091016;28;20020;-29
2022/11/12 09:22:47;;;;;;;10.32;4.97;;;;;;;10.16;100.00;101658.31;5091368;28;20036;-30
2022/11/12 09:25:12;;;;;;;8.77;4.22;;;;;;;10.25;100.00;101659.91;5091122;28;20032;-28
2022/11/12 09:27:37;;;;;;;8.32;4.40;;;;;;;10.22;99.25;101673.59;5091027;28;20101;-27
2022/11/12 09:30:03;;;;;;;8.77;4.65;;;;;;;10.23;99.18;101656.59;5091207;28;20404;-27
2022/11/12 09:32:29;;;;;;;7.22;4.40;;;;;;;10.14;100.00;101649.66;5072165;28;20039;-29
2022/11/12 09:34:55;;;;;;;10.55;5.72;;;;;;;10.20;99.93;101648.97;5072271;28;20392;-27
2022/11/12 09:37:20;;;;;;;32.70;10.57;;;;;;;10.11;100.00;101650.81;5090705;28;20020;-28
2022/11/12 09:39:45;;;;;;;37.40;11.50;;;;;;;10.07;100.00;101638.84;5090552;28;20024;-27
2022/11/12 09:42:18;;;;;;;23.17;8.77;;;;;;;9.92;100.00;101628.13;5090459;28;20332;-33
2022/11/12 09:44:54;;;;;;;8.50;4.57;;;;;;;9.69;100.00;101635.28;5072086;28;20024;-29
2022/11/12 09:47:30;;;;;;;6.53;3.92;;;;;;;9.72;100.00;101641.06;5072416;28;20027;-28
2022/11/12 09:50:25;;;;;;;7.60;4.40;;;;;;;9.86;100.00;101642.16;5090635;28;20031;-29
2022/11/12 09:52:56;;;;;;;7.43;4.50;;;;;;;9.56;100.00;101633.16;5071930;28;20028;-28
2022/11/12 09:55:29;;;;;;;9.00;5.05;;;;;;;9.81;100.00;101647.19;5090147;28;20051;-28
2022/11/12 09:57:55;;;;;;;10.15;6.20;;;;;;;9.80;100.00;101635.69;5090363;28;20039;-27
2022/11/12 10:00:21;;;;;;;7.32;4.90;;;;;;;9.52;100.00;101640.69;5072175;28;20029;-29
2022/11/12 10:02:49;;;;;;;10.02;5.30;;;;;;;9.57;100.00;101648.16;5089456;28;20027;-37
2022/11/12 10:05:24;;;;;;;;;;;;;;;9.80;100.00;101650.84;5090790;28;20040;-29
2022/11/12 10:08:04;;;;;;;7.82;4.10;;;;;;;9.46;100.00;101657.34;5090120;28;19924;-28
2022/11/12 10:10:35;;;;;;;8.88;4.32;;;;;;;9.42;100.00;101661.34;5071927;28;20031;-27
2022/11/12 10:13:27;;;;;;;7.07;4.13;;;;;;;9.62;100.00;101653.75;5071762;28;20487;-27
2022/11/12 10:19:02;;;;;;;;;;;;;;;9.23;100.00;101652.78;5090741;28;20039;-31
2022/11/12 10:21:36;;;;;;;;;;;;;;;9.36;100.00;101656.72;5090329;28;20614;-27
2022/11/12 10:24:02;;;;;;;;;;;;;;;9.38;100.00;101652.06;5090345;28;19916;-30
2022/11/12 10:26:30;;;;;;;;;;;;;;;9.50;100.00;101647.16;5090010;28;19919;-29
2022/11/12 10:29:16;;;;;;;;;;;;;;;9.30;100.00;101646.75;5089972;28;19919;-29
2022/11/12 10:31:42;;;;;;;;;;;;;;;9.40;100.00;101647.38;5090340;28;19958;-29
2022/11/12 10:34:10;;;;;;;;;;;;;;;9.40;100.00;101650.06;5090223;28;19927;-27
2022/11/12 10:36:37;;;;;;;;;;;;;;;9.45;100.00;101642.34;5071804;28;19916;-34
2022/11/12 10:39:03;;;;;;;;;;;;;;;9.52;100.00;101653.16;5090047;28;19970;-32
2022/11/12 10:41:30;;;;;;;;;;;;;;;9.52;100.00;101654.00;5089714;28;19916;-27
2022/11/12 10:43:57;;;;;;;;;;;;;;;9.52;100.00;101662.00;5090406;28;19912;-28
2022/11/12 10:46:23;;;;;;;;;;;;;;;9.69;100.00;101667.25;5071552;28;19912;-28
2022/11/12 10:48:54;;;;;;;;;;;;;;;10.24;100.00;101671.59;5089524;28;19920;-29
2022/11/12 10:51:25;;;;;;;;;;;;;;;10.86;100.00;101674.09;5089783;28;19916;-31
2022/11/12 10:53:51;;;;;;;;;;;;;;;10.14;100.00;101665.66;5071325;28;19973;-31
2022/11/12 10:56:29;;;;;;;;;;;;;;;9.95;100.00;101662.44;5089906;28;19969;-28
2022/11/12 10:59:15;;;;;;;;;;;;;;;10.00;100.00;101662.72;5089404;28;19916;-28
2022/11/12 11:01:42;;;;;;;;;;;;;;;9.74;100.00;101660.38;5069901;28;19919;-28
2022/11/12 11:04:15;;;;;;;;;;;;;;;9.52;100.00;101651.34;5088453;28;20410;-27
2022/11/12 11:06:40;;;;;;;;;;;;;;;9.72;100.00;101650.91;5088312;28;20277;-28
2022/11/12 11:09:12;;;;;;;;;;;;;;;9.47;100.00;101664.31;5088254;28;20010;-29
2022/11/12 11:11:46;;;;;;;;;;;;;;;9.56;100.00;101652.66;5087930;28;19923;-28
2022/11/12 11:14:21;;;;;;;;;;;;;;;9.68;100.00;101661.06;5087367;28;19916;-31
2022/11/12 11:16:49;;;;;;;;;;;;;;;9.54;100.00;101652.00;5087847;28;19923;-28
2022/11/12 11:19:14;;;;;;;;;;;;;;;9.45;100.00;101655.69;5069617;28;19923;-29
2022/11/12 11:21:49;;;;;;;;;;;;;;;9.51;100.00;101649.66;5069860;28;19916;-31
2022/11/12 11:24:24;;;;;;;;;;;;;;;9.35;100.00;101655.03;5088181;28;19973;-31
2022/11/12 11:27:08;;;;;;;;;;;;;;;9.27;100.00;101655.06;5086070;28;20339;-32
2022/11/12 11:29:49;;;;;;;;;;;;;;;9.16;100.00;101657.09;5069864;28;19912;-28
2022/11/12 11:32:23;;;;;;;;;;;;;;;9.10;100.00;101649.78;5087895;28;20015;-28
2022/11/12 11:35:00;;;;;;;;;;;;;;;9.30;100.00;101644.09;5087956;28;20118;-28
2022/11/12 11:37:27;;;;;;;;;;;;;;;9.15;100.00;101634.13;5087707;28;19916;-28
2022/11/12 11:39:55;;;;;;;;;;;;;;;9.10;100.00;101636.50;5088213;28;19961;-29
2022/11/12 11:42:39;;;;;;;;;;;;;;;9.09;100.00;101634.81;5088230;28;19916;-33
2022/11/12 11:45:19;;;;;;;;;;;;;;;9.02;100.00;101632.00;5087444;28;19912;-30
2022/11/12 11:48:00;;;;;;;;;;;;;;;9.16;100.00;101629.66;5069229;28;20321;-33
2022/11/12 11:50:32;;;;;;;;;;;;;;;9.10;100.00;101617.84;5087708;28;19959;-31
2022/11/12 11:53:11;;;;;;;;;;;;;;;9.16;100.00;101619.84;5086077;28;19920;-30
2022/11/12 11:55:53;;;;;;;;;;;;;;;9.29;100.00;101613.13;5087770;28;19973;-29
2022/11/12 11:58:28;;;;;;;;;;;;;;;9.15;100.00;101607.50;5087523;28;19927;-30
2022/11/12 12:00:53;;;;;;;;;;;;;;;9.32;100.00;101612.81;5087426;28;19916;-28